Burewala Weather



Burewala's Current Weather

Temprature 18.61o clear sky

clear sky

Rain: 0 %

Min Temprature18.61o
Max Temprature18.61o
Humidity26
Wind Speed1.9 m/h
Sun Rise06:20:26
Sun Set17:25:42
Current Time: 28-Oct-2020 05:24:31
Lat/Lon: 30.17, 72.65




Burewala's Geo Location



Burewala's Weather Forecast

Time Overall Temp Min Temp Max Temp Humidity Wind Speed Rain
28-Oct-2020 (Wed)
08:00:00 clear sky 21.060 21.060 23.570 23 2.82 m/h 0 %
11:00:00 clear sky 29.800 29.800 32.870 14 3.97 m/h 0 %
14:00:00 clear sky 33.730 33.730 34.760 11 3.6 m/h 0 %
17:00:00 clear sky 30.020 30.020 30.110 13 3.24 m/h 0 %
20:00:00 clear sky 24.110 24.110 24.110 18 2.8 m/h 0 %
23:00:00 clear sky 21.370 21.370 21.370 22 1.42 m/h 0 %
29-Oct-2020 (Thu)
02:00:00 clear sky 20.060 20.060 20.060 23 1.78 m/h 0 %
05:00:00 clear sky 19.010 19.010 19.010 25 1.95 m/h 0 %
08:00:00 clear sky 23.100 23.100 23.100 19 2.26 m/h 0 %
11:00:00 clear sky 32.490 32.490 32.490 12 3.93 m/h 0 %
14:00:00 clear sky 34.870 34.870 34.870 10 3.36 m/h 0 %
17:00:00 clear sky 30.180 30.180 30.180 13 1.81 m/h 0 %
20:00:00 clear sky 22.330 22.330 22.330 21 0.93 m/h 0 %
23:00:00 clear sky 21.290 21.290 21.290 22 1.61 m/h 0 %
30-Oct-2020 (Fri)
02:00:00 clear sky 19.490 19.490 19.490 25 1.58 m/h 0 %
05:00:00 clear sky 18.570 18.570 18.570 26 2.09 m/h 0 %
08:00:00 clear sky 22.120 22.120 22.120 21 1.52 m/h 0 %
11:00:00 clear sky 31.930 31.930 31.930 11 2.65 m/h 0 %
14:00:00 clear sky 34.520 34.520 34.520 10 3.61 m/h 0 %
17:00:00 clear sky 29.510 29.510 29.510 13 3 m/h 0 %
20:00:00 clear sky 23.220 23.220 23.220 19 2.87 m/h 0 %
23:00:00 clear sky 21.090 21.090 21.090 22 2.17 m/h 0 %
31-Oct-2020 (Sat)
02:00:00 clear sky 18.990 18.990 18.990 25 2.17 m/h 0 %
05:00:00 clear sky 16.630 16.630 16.630 29 0.7 m/h 0 %
08:00:00 clear sky 21.790 21.790 21.790 21 1.12 m/h 0 %
11:00:00 clear sky 32.400 32.400 32.400 11 0.53 m/h 0 %
14:00:00 clear sky 33.810 33.810 33.810 10 2.72 m/h 0 %
17:00:00 clear sky 29.070 29.070 29.070 13 2.18 m/h 0 %
20:00:00 clear sky 22.860 22.860 22.860 19 2.45 m/h 0 %
23:00:00 clear sky 20.260 20.260 20.260 23 1 m/h 0 %
01-Nov-2020 (Sun)
02:00:00 clear sky 17.870 17.870 17.870 26 1.13 m/h 0 %
05:00:00 clear sky 17.680 17.680 17.680 27 1.36 m/h 0 %
08:00:00 clear sky 22.970 22.970 22.970 19 1.35 m/h 0 %
11:00:00 clear sky 32.580 32.580 32.580 11 1.6 m/h 0 %
14:00:00 clear sky 34.310 34.310 34.310 9 2.69 m/h 0 %
17:00:00 clear sky 28.990 28.990 28.990 12 2.48 m/h 0 %
20:00:00 clear sky 22.260 22.260 22.260 18 2.91 m/h 0 %
23:00:00 clear sky 19.480 19.480 19.480 23 1.47 m/h 0 %
02-Nov-2020 (Mon)
02:00:00 clear sky 17.190 17.190 17.190 26 0.08 m/h 0 %
05:00:00 clear sky 17.220 17.220 17.220 26 1.22 m/h 0 %


Burewala's Tourist Spots

Historical Places in Burewala

Famous Cities (60)